createdAt,value
2019-05-29T00:00:32.272Z,133.00
2019-05-29T00:01:10.367Z,140.97
2019-05-29T00:01:43.696Z,141.35
2019-05-29T00:02:18.676Z,127.02
2019-05-29T00:02:52.814Z,111.62
2019-05-29T00:03:27.801Z,111.12
2019-05-29T00:04:02.618Z,130.52
2019-05-29T00:04:36.868Z,112.40
2019-05-29T00:05:12.331Z,141.20
2019-05-29T00:05:47.134Z,115.47
2019-05-29T00:06:21.455Z,106.95
2019-05-29T00:06:56.075Z,101.25
2019-05-29T00:07:30.975Z,115.95
2019-05-29T00:08:06.303Z,103.05
2019-05-29T00:08:41.355Z,106.15
2019-05-29T00:09:16.106Z,107.20
2019-05-29T00:09:50.454Z,120.42
2019-05-29T00:10:25.303Z,112.37
2019-05-29T00:10:59.958Z,113.52
2019-05-29T00:11:34.462Z,142.25
2019-05-29T00:12:13.671Z,118.42
2019-05-29T00:12:45.971Z,119.45
2019-05-29T00:13:20.246Z,119.25
2019-05-29T00:13:55.246Z,94.65
2019-05-29T00:14:30.015Z,110.95
2019-05-29T00:15:04.427Z,108.63
2019-05-29T00:15:39.233Z,97.55
2019-05-29T00:16:14.509Z,93.87
2019-05-29T00:16:48.853Z,107.30
2019-05-29T00:17:23.494Z,88.27
2019-05-29T00:17:58.351Z,107.67
2019-05-29T00:18:32.719Z,94.60
2019-05-29T00:19:08.783Z,89.58
2019-05-29T00:19:43.662Z,74.22
2019-05-29T00:20:18.676Z,65.05
2019-05-29T00:20:53.671Z,70.28
2019-05-29T00:21:28.624Z,70.00
2019-05-29T00:22:02.989Z,66.72
2019-05-29T00:22:37.716Z,60.83
2019-05-29T00:23:12.597Z,72.32
2019-05-29T00:23:47.070Z,54.08
2019-05-29T00:24:21.774Z,60.28
2019-05-29T00:24:56.506Z,67.22
2019-05-29T00:25:30.665Z,66.02
2019-05-29T00:26:06.323Z,73.55
2019-05-29T00:26:41.365Z,71.87
2019-05-29T00:27:15.683Z,75.62
2019-05-29T00:27:50.755Z,68.22
2019-05-29T00:28:25.481Z,63.78
2019-05-29T00:28:59.947Z,66.70
2019-05-29T00:29:34.817Z,56.08
2019-05-29T00:30:10.852Z,54.60
2019-05-29T00:30:44.927Z,63.30
2019-05-29T00:31:19.862Z,58.05
2019-05-29T00:31:54.714Z,67.90
2019-05-29T00:32:28.902Z,59.23
2019-05-29T00:33:03.830Z,63.40
2019-05-29T00:33:38.447Z,54.30
2019-05-29T00:34:13.056Z,58.55
2019-05-29T00:34:48.059Z,53.75
2019-05-29T00:35:22.982Z,48.52
2019-05-29T00:35:57.176Z,55.75
2019-05-29T00:36:31.937Z,53.40
2019-05-29T00:37:06.651Z,57.25
2019-05-29T00:37:40.835Z,42.53
2019-05-29T00:38:16.664Z,33.95
2019-05-29T00:38:51.639Z,40.08
2019-05-29T00:39:26.087Z,36.33
2019-05-29T00:40:01.096Z,36.45
2019-05-29T00:40:35.906Z,34.58
2019-05-29T00:41:10.827Z,32.15
2019-05-29T00:41:45.742Z,39.18
2019-05-29T00:42:20.802Z,29.85
2019-05-29T00:42:55.377Z,30.48
2019-05-29T00:43:30.127Z,29.80
2019-05-29T00:44:05.444Z,31.97
2019-05-29T00:44:39.631Z,32.95
2019-05-29T00:45:15.718Z,39.00
2019-05-29T00:45:50.571Z,30.15
2019-05-29T00:46:24.761Z,35.75
2019-05-29T00:46:59.525Z,32.17
2019-05-29T00:47:34.424Z,26.87
2019-05-29T00:48:09.581Z,30.25
2019-05-29T00:48:44.760Z,24.67
2019-05-29T00:49:19.732Z,24.77
2019-05-29T00:49:53.893Z,29.20
2019-05-29T00:50:28.741Z,28.05
2019-05-29T00:51:03.380Z,29.52
2019-05-29T00:51:37.512Z,26.33
2019-05-29T00:52:12.413Z,27.37
2019-05-29T00:52:47.134Z,25.02
2019-05-29T00:53:21.274Z,25.30
2019-05-29T00:53:56.173Z,25.43
2019-05-29T00:54:31.066Z,22.45
2019-05-29T00:55:05.918Z,27.27
2019-05-29T00:55:40.759Z,22.00
2019-05-29T00:56:16.648Z,20.55
2019-05-29T00:56:51.073Z,23.35
2019-05-29T00:57:26.126Z,19.57
2019-05-29T00:58:00.914Z,21.57
2019-05-29T00:58:35.255Z,20.77
2019-05-29T00:59:11.052Z,26.27
2019-05-29T00:59:46.082Z,18.90
2019-05-29T01:00:20.372Z,18.20
2019-05-29T01:00:55.340Z,18.42
2019-05-29T01:01:30.170Z,18.05
2019-05-29T01:02:04.650Z,15.65
2019-05-29T01:02:39.582Z,13.25
2019-05-29T01:03:14.302Z,10.68
2019-05-29T01:03:48.460Z,12.88
2019-05-29T01:04:23.193Z,11.93
2019-05-29T01:04:57.965Z,12.90
2019-05-29T01:05:32.304Z,15.40
2019-05-29T01:06:06.927Z,11.57
2019-05-29T01:06:41.634Z,11.65
2019-05-29T01:07:20.410Z,11.48
2019-05-29T01:07:55.311Z,13.53
2019-05-29T01:08:30.094Z,13.03
2019-05-29T01:09:06.996Z,10.35
2019-05-29T01:09:41.924Z,14.98
2019-05-29T01:10:18.938Z,15.05
2019-05-29T01:10:53.202Z,10.95
2019-05-29T01:11:28.184Z,10.82
2019-05-29T01:12:03.208Z,12.78
2019-05-29T01:12:37.352Z,9.68
2019-05-29T01:13:13.144Z,9.38
2019-05-29T01:13:48.195Z,10.98
2019-05-29T01:14:22.522Z,13.22
2019-05-29T01:14:57.358Z,8.05
2019-05-29T01:15:32.235Z,10.08
2019-05-29T01:16:06.455Z,9.68
2019-05-29T01:16:41.261Z,9.08
2019-05-29T01:17:15.977Z,8.00
2019-05-29T01:17:50.321Z,8.43
2019-05-29T01:18:25.312Z,7.83
2019-05-29T01:19:20.165Z,9.35
2019-05-29T01:19:54.694Z,5.37
2019-05-29T01:20:29.615Z,6.53
2019-05-29T01:21:04.528Z,9.90
2019-05-29T01:21:40.176Z,7.12
2019-05-29T01:22:16.066Z,5.90
2019-05-29T01:22:51.207Z,5.85
2019-05-29T01:23:25.605Z,7.22
2019-05-29T01:24:00.340Z,5.95
2019-05-29T01:24:35.273Z,4.70
2019-05-29T01:25:10.008Z,5.80
2019-05-29T01:25:44.924Z,6.67
2019-05-29T01:26:20.787Z,5.80
2019-05-29T01:26:55.264Z,3.37
2019-05-29T01:27:30.192Z,4.10
2019-05-29T01:28:05.144Z,4.15
2019-05-29T01:28:39.309Z,4.10
2019-05-29T01:29:14.962Z,4.17
2019-05-29T01:29:49.847Z,4.22
2019-05-29T01:30:24.163Z,6.22
2019-05-29T01:30:59.167Z,8.28
2019-05-29T01:31:34.103Z,3.70
2019-05-29T01:32:08.516Z,3.87
2019-05-29T01:32:43.535Z,3.75
2019-05-29T01:33:20.458Z,3.17
2019-05-29T01:33:54.327Z,3.00
2019-05-29T01:34:29.037Z,2.83
2019-05-29T01:35:03.954Z,2.80
2019-05-29T01:35:38.213Z,3.20
2019-05-29T01:36:13.867Z,3.05
2019-05-29T01:36:48.911Z,3.62
2019-05-29T01:37:24.283Z,3.80
2019-05-29T01:37:59.628Z,5.83
2019-05-29T01:38:34.478Z,3.60
2019-05-29T01:39:08.809Z,2.58
2019-05-29T01:39:43.659Z,3.27
2019-05-29T01:40:24.488Z,2.25
2019-05-29T01:40:55.004Z,2.98
2019-05-29T01:41:30.021Z,4.00
2019-05-29T01:42:05.114Z,3.60
2019-05-29T01:42:39.500Z,5.22
2019-05-29T01:43:15.343Z,3.42
2019-05-29T01:43:50.189Z,2.58
2019-05-29T01:44:24.734Z,3.02
2019-05-29T01:45:07.772Z,2.47
2019-05-29T01:45:36.243Z,3.45
2019-05-29T01:46:10.542Z,2.42
2019-05-29T01:46:45.486Z,2.85
2019-05-29T01:47:21.508Z,2.35
2019-05-29T01:47:55.831Z,2.42
2019-05-29T01:48:30.718Z,2.45
2019-05-29T01:49:05.810Z,2.42
2019-05-29T01:49:39.991Z,2.25
2019-05-29T01:50:15.550Z,2.22
2019-05-29T01:50:50.314Z,2.62
2019-05-29T01:51:24.475Z,2.75
2019-05-29T01:51:59.251Z,1.90
2019-05-29T01:52:34.172Z,2.67
2019-05-29T01:53:08.438Z,2.83
2019-05-29T01:53:43.390Z,2.12
2019-05-29T01:54:18.020Z,2.55
2019-05-29T01:54:52.282Z,2.35
2019-05-29T01:55:27.988Z,2.40
2019-05-29T01:56:02.931Z,3.95
2019-05-29T01:56:37.065Z,2.47
2019-05-29T01:57:12.483Z,2.37
2019-05-29T01:57:47.274Z,2.95
2019-05-29T01:58:21.991Z,2.58
2019-05-29T01:58:57.227Z,4.92
2019-05-29T01:59:32.116Z,2.15
2019-05-29T02:00:07.492Z,2.77
2019-05-29T02:00:42.471Z,3.42
2019-05-29T02:01:18.016Z,2.33
2019-05-29T02:01:52.507Z,2.62
2019-05-29T02:02:28.255Z,1.85
2019-05-29T02:03:03.207Z,2.00
2019-05-29T02:03:37.635Z,4.00
2019-05-29T02:04:12.615Z,2.15
2019-05-29T02:04:47.333Z,2.12
2019-05-29T02:05:22.038Z,2.20
2019-05-29T02:05:57.167Z,4.35
2019-05-29T02:06:32.292Z,2.02
2019-05-29T02:07:06.998Z,3.80
2019-05-29T02:07:41.804Z,1.72
2019-05-29T02:08:17.971Z,2.98
2019-05-29T02:08:52.458Z,2.35
2019-05-29T02:09:28.373Z,2.15
2019-05-29T02:10:03.439Z,2.22
2019-05-29T02:10:37.950Z,2.50
2019-05-29T02:11:13.323Z,2.17
2019-05-29T02:11:48.147Z,2.22
2019-05-29T02:12:22.421Z,2.10
2019-05-29T02:12:57.614Z,2.37
2019-05-29T02:13:32.467Z,4.62
2019-05-29T02:14:06.864Z,1.92
2019-05-29T02:14:41.781Z,3.37
2019-05-29T02:15:26.021Z,1.77
2019-05-29T02:15:54.782Z,1.95
2019-05-29T02:16:29.643Z,1.92
2019-05-29T02:17:04.675Z,1.77
2019-05-29T02:17:39.112Z,2.40
2019-05-29T02:18:13.938Z,1.95
2019-05-29T02:18:48.882Z,1.85
2019-05-29T02:19:24.025Z,5.90
2019-05-29T02:19:59.148Z,2.25
2019-05-29T02:20:33.949Z,3.72
2019-05-29T02:21:08.174Z,2.50
2019-05-29T02:21:43.727Z,2.15
2019-05-29T02:22:18.880Z,2.40
2019-05-29T02:22:53.365Z,2.00
2019-05-29T02:23:28.367Z,3.77
2019-05-29T02:24:03.554Z,2.47
2019-05-29T02:24:37.737Z,2.70
2019-05-29T02:25:15.927Z,3.85
2019-05-29T02:25:49.784Z,3.27
2019-05-29T02:26:24.444Z,4.58
2019-05-29T02:26:59.863Z,2.75
2019-05-29T02:27:34.832Z,2.95
2019-05-29T02:28:09.379Z,3.25
2019-05-29T02:28:44.094Z,2.52
2019-05-29T02:29:19.124Z,2.83
2019-05-29T02:29:53.487Z,3.45
2019-05-29T02:30:30.688Z,2.22
2019-05-29T02:31:05.067Z,2.33
2019-05-29T02:31:39.467Z,2.50
2019-05-29T02:32:14.267Z,2.42
2019-05-29T02:32:49.045Z,3.05
2019-05-29T02:33:24.210Z,2.72
2019-05-29T02:33:59.958Z,3.12
2019-05-29T02:34:34.897Z,3.35
2019-05-29T02:35:09.435Z,1.80
2019-05-29T02:35:44.417Z,3.52
2019-05-29T02:36:20.357Z,2.45
2019-05-29T02:36:55.111Z,1.70
2019-05-29T02:37:30.056Z,1.50
2019-05-29T02:38:05.090Z,2.58
2019-05-29T02:38:39.472Z,3.85
2019-05-29T02:39:14.287Z,2.00
2019-05-29T02:39:49.291Z,1.55
2019-05-29T02:40:25.816Z,1.60
2019-05-29T02:41:00.765Z,1.20
2019-05-29T02:41:35.912Z,3.22
2019-05-29T02:42:10.582Z,1.52
2019-05-29T02:42:45.441Z,1.85
2019-05-29T02:43:21.375Z,2.10
2019-05-29T02:43:56.444Z,1.70
2019-05-29T02:44:31.303Z,5.62
2019-05-29T02:45:08.308Z,2.05
2019-05-29T02:45:53.796Z,2.35
2019-05-29T02:46:19.429Z,1.70
2019-05-29T02:46:54.563Z,3.35
2019-05-29T02:47:30.257Z,5.50
2019-05-29T02:48:05.465Z,3.05
2019-05-29T02:48:40.367Z,1.60
2019-05-29T02:49:14.579Z,3.20
2019-05-29T02:49:49.392Z,2.35
2019-05-29T02:50:26.194Z,3.40
2019-05-29T02:51:00.541Z,2.05
2019-05-29T02:51:35.523Z,1.70
2019-05-29T02:52:10.415Z,1.60
2019-05-29T02:52:44.952Z,1.70
2019-05-29T02:53:20.055Z,2.50
2019-05-29T02:53:54.927Z,2.72
2019-05-29T02:54:30.096Z,2.75
2019-05-29T02:55:07.333Z,2.05
2019-05-29T02:55:42.283Z,1.50
2019-05-29T02:56:16.418Z,3.35
2019-05-29T02:56:51.494Z,1.50
2019-05-29T02:57:26.942Z,2.80
2019-05-29T02:58:01.394Z,1.42
2019-05-29T02:58:36.241Z,2.45
2019-05-29T02:59:11.117Z,1.42
2019-05-29T02:59:45.244Z,3.42
2019-05-29T03:00:23.389Z,1.98
2019-05-29T03:00:58.641Z,1.40
2019-05-29T03:01:33.011Z,1.30
2019-05-29T03:02:08.069Z,1.22
2019-05-29T03:02:42.784Z,0.80
2019-05-29T03:03:17.303Z,0.70
2019-05-29T03:03:52.388Z,4.45
2019-05-29T03:04:28.164Z,1.20
2019-05-29T03:05:03.304Z,1.07
2019-05-29T03:05:38.203Z,0.98
2019-05-29T03:06:13.587Z,0.95
2019-05-29T03:06:47.963Z,1.07
2019-05-29T03:07:24.303Z,1.70
2019-05-29T03:07:59.652Z,1.62
2019-05-29T03:08:34.490Z,1.00
2019-05-29T03:09:09.788Z,1.37
2019-05-29T03:09:45.303Z,3.67
2019-05-29T03:10:19.710Z,1.20
2019-05-29T03:10:54.608Z,2.15
2019-05-29T03:11:31.059Z,1.75
2019-05-29T03:12:05.475Z,2.20
2019-05-29T03:12:41.236Z,1.30
2019-05-29T03:13:16.496Z,1.07
2019-05-29T03:13:51.418Z,1.27
2019-05-29T03:14:27.269Z,1.25
2019-05-29T03:15:02.412Z,1.02
2019-05-29T03:15:36.462Z,0.95
2019-05-29T03:16:12.831Z,6.35
2019-05-29T03:16:47.708Z,1.40
2019-05-29T03:17:23.519Z,1.50
2019-05-29T03:17:58.793Z,1.37
2019-05-29T03:18:34.994Z,1.47
2019-05-29T03:19:09.676Z,1.32
2019-05-29T03:19:44.334Z,1.85
2019-05-29T03:20:19.254Z,1.95
2019-05-29T03:20:53.662Z,1.32
2019-05-29T03:21:30.437Z,3.30
2019-05-29T03:22:05.214Z,1.47
2019-05-29T03:22:39.580Z,1.20
2019-05-29T03:23:14.467Z,2.45
2019-05-29T03:23:49.398Z,1.20
2019-05-29T03:24:24.471Z,2.37
2019-05-29T03:24:59.301Z,1.67
2019-05-29T03:25:35.134Z,1.57
2019-05-29T03:26:10.070Z,2.10
2019-05-29T03:26:44.929Z,1.52
2019-05-29T03:27:19.813Z,3.87
2019-05-29T03:27:54.208Z,1.27
2019-05-29T03:28:29.935Z,1.67
2019-05-29T03:29:05.388Z,1.80
2019-05-29T03:29:39.686Z,4.15
2019-05-29T03:30:14.519Z,1.30
2019-05-29T03:30:49.459Z,1.20
2019-05-29T03:31:23.837Z,2.05
2019-05-29T03:31:58.538Z,1.40
2019-05-29T03:32:42.229Z,1.65
2019-05-29T03:33:09.429Z,4.25
2019-05-29T03:33:49.024Z,4.87
2019-05-29T03:34:21.147Z,2.55
2019-05-29T03:34:55.638Z,1.62
2019-05-29T03:35:37.714Z,2.75
2019-05-29T03:36:07.270Z,2.20
2019-05-29T03:36:47.135Z,3.42
2019-05-29T03:37:18.146Z,2.33
2019-05-29T03:37:53.096Z,3.92
2019-05-29T03:38:28.345Z,2.62
2019-05-29T03:39:03.715Z,2.47
2019-05-29T03:39:38.754Z,3.52
2019-05-29T03:40:13.153Z,2.33
2019-05-29T03:40:49.178Z,2.33
2019-05-29T03:41:24.104Z,1.75
2019-05-29T03:41:58.405Z,2.10
2019-05-29T03:42:34.470Z,3.30
2019-05-29T03:43:09.405Z,3.27
2019-05-29T03:43:43.779Z,2.75
2019-05-29T03:44:18.595Z,4.08
2019-05-29T03:44:53.515Z,3.62
2019-05-29T03:45:28.950Z,3.58
2019-05-29T03:46:04.687Z,1.85
2019-05-29T03:46:45.332Z,1.60
2019-05-29T03:47:15.503Z,2.45
2019-05-29T03:47:50.400Z,1.30
2019-05-29T03:48:25.937Z,2.55
2019-05-29T03:49:00.959Z,2.20
2019-05-29T03:49:37.243Z,1.70
2019-05-29T03:50:15.627Z,3.65
2019-05-29T03:50:49.057Z,1.75
2019-05-29T03:51:23.755Z,2.77
2019-05-29T03:51:58.477Z,1.80
2019-05-29T03:52:34.670Z,2.72
2019-05-29T03:53:09.275Z,4.50
2019-05-29T03:53:44.720Z,4.25
2019-05-29T03:54:19.294Z,2.62
2019-05-29T03:54:54.305Z,1.82
2019-05-29T03:55:29.477Z,3.70
2019-05-29T03:56:04.134Z,2.20
2019-05-29T03:56:39.164Z,3.05
2019-05-29T03:57:14.024Z,1.98
2019-05-29T03:57:48.373Z,2.45
2019-05-29T03:58:23.298Z,2.22
2019-05-29T03:58:58.257Z,4.08
2019-05-29T03:59:32.791Z,3.87
2019-05-29T04:00:08.394Z,2.02
2019-05-29T04:00:46.419Z,2.52
2019-05-29T04:01:19.332Z,2.42
2019-05-29T04:01:54.457Z,2.30
2019-05-29T04:02:31.228Z,3.58
2019-05-29T04:03:05.581Z,2.22
2019-05-29T04:03:40.545Z,2.02
2019-05-29T04:04:15.443Z,2.47
2019-05-29T04:04:49.965Z,1.80
2019-05-29T04:05:24.984Z,2.08
2019-05-29T04:05:59.848Z,1.80
2019-05-29T04:06:35.611Z,2.50
2019-05-29T04:07:10.601Z,1.92
2019-05-29T04:07:45.410Z,2.20
2019-05-29T04:08:19.715Z,2.33
2019-05-29T04:08:54.693Z,2.27
2019-05-29T04:09:31.114Z,4.05
2019-05-29T04:10:07.397Z,7.97
2019-05-29T04:10:42.749Z,3.92
2019-05-29T04:11:17.526Z,4.55
2019-05-29T04:11:52.164Z,8.00
2019-05-29T04:12:27.078Z,7.83
2019-05-29T04:13:02.523Z,7.87
2019-05-29T04:13:38.734Z,8.90
2019-05-29T04:14:13.986Z,5.53
2019-05-29T04:14:49.945Z,9.68
2019-05-29T04:15:24.265Z,8.10
2019-05-29T04:16:01.656Z,6.17
2019-05-29T04:16:58.118Z,5.92
2019-05-29T04:17:15.069Z,5.35
2019-05-29T04:17:50.139Z,2.80
2019-05-29T04:18:27.600Z,6.47
2019-05-29T04:19:04.422Z,4.15
2019-05-29T04:19:39.614Z,4.03
2019-05-29T04:20:16.198Z,3.27
2019-05-29T04:20:52.336Z,2.10
2019-05-29T04:21:27.900Z,4.05
2019-05-29T04:22:09.654Z,1.85
2019-05-29T04:22:45.754Z,2.95
2019-05-29T04:23:21.518Z,3.02
2019-05-29T04:23:58.479Z,1.82
2019-05-29T04:24:34.037Z,2.20
2019-05-29T04:25:09.593Z,1.92
2019-05-29T04:25:46.216Z,1.70
2019-05-29T04:26:22.446Z,2.20
2019-05-29T04:26:58.585Z,2.95
2019-05-29T04:27:36.126Z,5.40
2019-05-29T04:28:10.969Z,8.00
2019-05-29T04:28:46.491Z,8.20
2019-05-29T04:29:21.587Z,10.08
2019-05-29T04:29:58.391Z,8.88
2019-05-29T04:30:36.300Z,8.98
2019-05-29T04:31:11.447Z,7.62
2019-05-29T04:31:45.818Z,9.45
2019-05-29T04:32:21.065Z,11.45
2019-05-29T04:32:56.106Z,7.67
2019-05-29T04:33:32.464Z,10.60
2019-05-29T04:34:07.269Z,10.48
2019-05-29T04:34:42.321Z,9.05
2019-05-29T04:35:16.566Z,13.25
2019-05-29T04:35:51.607Z,11.00
2019-05-29T04:36:26.419Z,9.08
2019-05-29T04:37:00.809Z,11.65
2019-05-29T04:37:36.901Z,11.08
2019-05-29T04:38:12.498Z,10.68
2019-05-29T04:38:46.848Z,12.53
2019-05-29T04:39:21.596Z,14.00
2019-05-29T04:39:56.468Z,9.45
2019-05-29T04:40:30.749Z,10.10
2019-05-29T04:41:06.063Z,9.25
2019-05-29T04:41:41.011Z,8.43
2019-05-29T04:42:15.561Z,7.28
2019-05-29T04:42:50.590Z,5.83
2019-05-29T04:43:26.151Z,5.05
2019-05-29T04:44:00.870Z,6.78
2019-05-29T04:44:38.199Z,6.45
2019-05-29T04:45:13.741Z,6.75
2019-05-29T04:45:48.159Z,6.95
2019-05-29T04:46:23.312Z,5.97
2019-05-29T04:47:10.247Z,6.72
2019-05-29T04:47:37.339Z,9.30
2019-05-29T04:48:13.801Z,7.60
2019-05-29T04:48:48.551Z,8.75
2019-05-29T04:49:22.988Z,9.90
2019-05-29T04:49:58.030Z,12.45
2019-05-29T04:50:33.568Z,12.10
2019-05-29T04:51:09.449Z,7.33
2019-05-29T04:51:44.639Z,10.98
2019-05-29T04:52:22.625Z,12.95
2019-05-29T04:52:57.138Z,8.08
2019-05-29T04:53:33.511Z,8.35
2019-05-29T04:54:09.128Z,8.45
2019-05-29T04:54:43.623Z,7.35
2019-05-29T04:55:18.647Z,5.80
2019-05-29T04:55:53.503Z,7.90
2019-05-29T04:56:28.758Z,5.90
2019-05-29T04:57:03.832Z,7.53
2019-05-29T04:57:39.240Z,7.35
2019-05-29T04:58:13.764Z,8.98
2019-05-29T04:58:49.013Z,8.20
2019-05-29T04:59:23.904Z,9.53
2019-05-29T04:59:58.217Z,6.55
2019-05-29T05:00:33.202Z,7.80
2019-05-29T05:01:08.060Z,9.78
2019-05-29T05:01:42.534Z,9.13
2019-05-29T05:02:17.379Z,11.35
2019-05-29T05:02:52.282Z,9.93
2019-05-29T05:03:26.552Z,11.43
2019-05-29T05:04:01.564Z,8.80
2019-05-29T05:04:37.304Z,9.25
2019-05-29T05:05:11.739Z,9.43
2019-05-29T05:05:46.673Z,8.28
2019-05-29T05:06:21.682Z,11.53
2019-05-29T05:06:56.321Z,13.50
2019-05-29T05:07:31.234Z,8.55
2019-05-29T05:08:06.183Z,13.20
2019-05-29T05:08:40.465Z,12.47
2019-05-29T05:09:15.242Z,10.45
2019-05-29T05:09:50.370Z,6.55
2019-05-29T05:10:36.230Z,8.08
2019-05-29T05:11:12.139Z,7.33
2019-05-29T05:11:47.542Z,6.90
2019-05-29T05:12:22.133Z,8.48
2019-05-29T05:12:57.197Z,7.65
2019-05-29T05:13:31.986Z,6.97
2019-05-29T05:14:06.945Z,8.93
2019-05-29T05:14:41.820Z,10.48
2019-05-29T05:15:16.802Z,11.90
2019-05-29T05:15:52.748Z,8.65
2019-05-29T05:16:27.795Z,10.23
2019-05-29T05:17:02.863Z,8.98
2019-05-29T05:17:38.021Z,13.03
2019-05-29T05:18:13.409Z,11.83
2019-05-29T05:18:48.200Z,7.58
2019-05-29T05:19:22.813Z,10.53
2019-05-29T05:19:57.714Z,8.60
2019-05-29T05:20:33.934Z,7.42
2019-05-29T05:21:08.618Z,9.80
2019-05-29T05:21:43.856Z,12.10
2019-05-29T05:22:18.945Z,6.00
2019-05-29T05:22:53.645Z,6.55
2019-05-29T05:23:29.929Z,8.65
2019-05-29T05:24:05.358Z,8.68
2019-05-29T05:24:43.449Z,7.17
2019-05-29T05:25:16.536Z,7.37
2019-05-29T05:25:51.517Z,6.67
2019-05-29T05:26:25.816Z,6.78
2019-05-29T05:27:00.924Z,9.70
2019-05-29T05:27:36.472Z,7.55
2019-05-29T05:28:11.128Z,9.43
2019-05-29T05:28:46.884Z,11.50
2019-05-29T05:29:22.237Z,11.00
2019-05-29T05:29:56.681Z,7.25
2019-05-29T05:30:32.329Z,6.53
2019-05-29T05:31:07.648Z,5.83
2019-05-29T05:31:41.997Z,5.72
2019-05-29T05:32:17.058Z,5.80
2019-05-29T05:32:52.294Z,4.05
2019-05-29T05:33:26.511Z,6.55
2019-05-29T05:34:01.636Z,5.97
2019-05-29T05:34:36.916Z,7.45
2019-05-29T05:35:14.375Z,6.20
2019-05-29T05:35:47.990Z,7.50
2019-05-29T05:36:23.046Z,5.90
2019-05-29T05:36:57.423Z,8.25
2019-05-29T05:37:32.706Z,9.75
2019-05-29T05:38:07.795Z,8.45
2019-05-29T05:38:42.487Z,6.70
2019-05-29T05:39:17.525Z,9.93
2019-05-29T05:39:52.514Z,8.75
2019-05-29T05:40:27.006Z,5.00
2019-05-29T05:41:02.952Z,7.87
2019-05-29T05:41:38.890Z,6.47
2019-05-29T05:42:13.557Z,7.08
2019-05-29T05:42:48.757Z,8.28
2019-05-29T05:43:24.680Z,7.00
2019-05-29T05:43:58.987Z,9.60
2019-05-29T05:44:34.940Z,8.33
2019-05-29T05:45:10.490Z,8.55
2019-05-29T05:45:45.089Z,9.68
2019-05-29T05:46:20.133Z,8.58
2019-05-29T05:46:55.314Z,7.75
2019-05-29T05:47:45.110Z,6.60
2019-05-29T05:48:06.630Z,8.40
2019-05-29T05:48:42.228Z,7.87
2019-05-29T05:49:16.949Z,10.53
2019-05-29T05:49:52.137Z,10.13
2019-05-29T05:50:27.414Z,7.92
2019-05-29T05:51:01.832Z,7.85
2019-05-29T05:51:39.884Z,13.18
2019-05-29T05:52:13.452Z,7.85
2019-05-29T05:52:47.928Z,6.87
2019-05-29T05:53:22.871Z,8.38
2019-05-29T05:53:58.107Z,7.33
2019-05-29T05:54:33.361Z,10.45
2019-05-29T05:55:08.698Z,8.50
2019-05-29T05:55:43.913Z,8.70
2019-05-29T05:56:18.407Z,11.73
2019-05-29T05:56:53.812Z,8.50
2019-05-29T05:57:28.994Z,8.48
2019-05-29T05:58:03.493Z,13.48
2019-05-29T05:58:39.831Z,10.43
2019-05-29T05:59:15.108Z,10.70
2019-05-29T05:59:49.579Z,11.73
2019-05-29T06:00:33.801Z,13.98
2019-05-29T06:01:08.918Z,12.03
2019-05-29T06:01:43.574Z,14.43
2019-05-29T06:02:18.509Z,9.73
2019-05-29T06:02:53.348Z,12.78
2019-05-29T06:03:27.923Z,11.97
2019-05-29T06:04:03.029Z,11.20
2019-05-29T06:04:38.251Z,11.00
2019-05-29T06:05:12.947Z,12.95
2019-05-29T06:05:47.944Z,13.93
2019-05-29T06:06:22.856Z,14.07
2019-05-29T06:06:57.355Z,12.47
2019-05-29T06:07:32.356Z,16.93
2019-05-29T06:08:07.470Z,19.73
2019-05-29T06:08:42.547Z,19.87
2019-05-29T06:09:17.710Z,20.65
2019-05-29T06:09:52.690Z,24.63
2019-05-29T06:10:27.226Z,23.70
2019-05-29T06:11:02.264Z,19.90
2019-05-29T06:11:38.326Z,14.60
2019-05-29T06:12:12.922Z,18.55
2019-05-29T06:12:47.749Z,18.30
2019-05-29T06:13:22.803Z,19.10
2019-05-29T06:13:57.127Z,17.10
2019-05-29T06:14:32.380Z,17.90
2019-05-29T06:15:07.887Z,19.15
2019-05-29T06:15:42.923Z,19.35
2019-05-29T06:16:17.979Z,15.78
2019-05-29T06:16:53.081Z,16.55
2019-05-29T06:17:27.565Z,16.42
2019-05-29T06:18:19.809Z,13.95
2019-05-29T06:18:40.565Z,18.20
2019-05-29T06:19:15.137Z,17.85
2019-05-29T06:19:50.266Z,10.82
2019-05-29T06:20:25.160Z,14.40
2019-05-29T06:20:59.394Z,11.78
2019-05-29T06:21:34.617Z,14.28
2019-05-29T06:22:09.921Z,12.07
2019-05-29T06:22:44.403Z,10.98
2019-05-29T06:23:19.366Z,14.83
2019-05-29T06:23:54.272Z,14.87
2019-05-29T06:24:28.754Z,11.75
2019-05-29T06:25:03.812Z,13.18
2019-05-29T06:25:40.404Z,16.57
2019-05-29T06:26:14.802Z,13.30
2019-05-29T06:26:49.742Z,11.95
2019-05-29T06:27:24.528Z,11.40
2019-05-29T06:27:59.221Z,10.80
2019-05-29T06:28:35.027Z,17.40
2019-05-29T06:29:10.139Z,14.35
2019-05-29T06:29:45.374Z,16.87
2019-05-29T06:30:21.749Z,14.73
2019-05-29T06:30:56.785Z,13.72
2019-05-29T06:31:31.176Z,16.42
2019-05-29T06:32:06.088Z,11.25
2019-05-29T06:32:41.549Z,16.77
2019-05-29T06:33:16.172Z,12.00
2019-05-29T06:33:51.190Z,9.75
2019-05-29T06:34:26.260Z,14.95
2019-05-29T06:35:00.776Z,10.08
2019-05-29T06:35:35.993Z,10.78
2019-05-29T06:36:11.290Z,12.13
2019-05-29T06:36:48.122Z,18.85
2019-05-29T06:37:22.521Z,13.80
2019-05-29T06:37:57.435Z,13.05
2019-05-29T06:38:31.881Z,17.92
2019-05-29T06:39:08.447Z,14.73
2019-05-29T06:39:43.913Z,18.12
2019-05-29T06:40:31.570Z,19.45
2019-05-29T06:41:06.907Z,22.35
2019-05-29T06:41:42.070Z,24.10
2019-05-29T06:42:16.581Z,21.68
2019-05-29T06:42:51.517Z,21.10
2019-05-29T06:43:27.146Z,22.40
2019-05-29T06:44:01.798Z,26.60
2019-05-29T06:44:39.393Z,21.37
2019-05-29T06:45:15.613Z,22.90
2019-05-29T06:45:50.362Z,23.70
2019-05-29T06:46:25.254Z,15.50
2019-05-29T06:47:00.403Z,21.33
2019-05-29T06:47:36.450Z,20.65
2019-05-29T06:48:14.905Z,18.48
2019-05-29T06:48:59.846Z,12.28
2019-05-29T06:49:25.879Z,7.08
2019-05-29T06:50:00.677Z,9.75
2019-05-29T06:50:37.259Z,12.35
2019-05-29T06:51:12.265Z,9.10
2019-05-29T06:51:47.527Z,4.50
2019-05-29T06:52:22.744Z,5.42
2019-05-29T06:52:57.137Z,6.20
2019-05-29T06:53:32.148Z,6.87
2019-05-29T06:54:07.564Z,4.92
2019-05-29T06:54:42.286Z,6.65
2019-05-29T06:55:17.545Z,3.72
2019-05-29T06:55:54.862Z,3.52
2019-05-29T06:56:28.777Z,4.67
2019-05-29T06:57:04.005Z,3.40
2019-05-29T06:57:40.276Z,5.42
2019-05-29T06:58:14.834Z,7.12
2019-05-29T06:58:49.685Z,3.42
2019-05-29T06:59:24.688Z,7.30
2019-05-29T06:59:58.997Z,3.77
2019-05-29T07:00:35.638Z,6.28
2019-05-29T07:01:10.975Z,6.80
2019-05-29T07:01:45.380Z,7.70
2019-05-29T07:02:20.416Z,5.08
2019-05-29T07:02:55.454Z,8.88
2019-05-29T07:03:29.969Z,6.65
2019-05-29T07:04:11.940Z,14.65
2019-05-29T07:04:42.740Z,13.32
2019-05-29T07:05:17.349Z,11.68
2019-05-29T07:05:52.967Z,9.55
2019-05-29T07:06:28.234Z,13.68
2019-05-29T07:07:02.626Z,10.80
2019-05-29T07:07:38.207Z,14.13
2019-05-29T07:08:20.888Z,15.15
2019-05-29T07:08:50.284Z,11.40
2019-05-29T07:09:25.669Z,15.38
2019-05-29T07:10:00.679Z,13.55
2019-05-29T07:10:36.389Z,13.88
2019-05-29T07:11:11.614Z,21.15
2019-05-29T07:11:47.565Z,20.25
2019-05-29T07:12:22.041Z,22.73
2019-05-29T07:12:57.038Z,20.23
2019-05-29T07:13:34.861Z,18.85
2019-05-29T07:14:08.159Z,18.67
2019-05-29T07:14:44.458Z,18.98
2019-05-29T07:15:19.797Z,19.65
2019-05-29T07:15:54.080Z,20.20
2019-05-29T07:16:43.202Z,12.45
2019-05-29T07:17:05.582Z,21.55
2019-05-29T07:17:40.415Z,19.45
2019-05-29T07:18:15.775Z,25.48
2019-05-29T07:19:45.100Z,17.12
2019-05-29T07:20:04.206Z,20.27
2019-05-29T07:20:40.607Z,25.88
2019-05-29T07:21:15.441Z,17.70
2019-05-29T07:21:50.298Z,18.62
2019-05-29T07:22:25.349Z,13.72
2019-05-29T07:22:59.578Z,13.83
2019-05-29T07:23:34.605Z,16.70
2019-05-29T07:24:09.728Z,12.00
2019-05-29T07:24:45.066Z,8.58
2019-05-29T07:25:20.042Z,12.30
2019-05-29T07:25:55.046Z,13.60
2019-05-29T07:26:29.606Z,20.17
2019-05-29T07:27:04.685Z,11.05
2019-05-29T07:27:40.828Z,16.62
2019-05-29T07:28:15.297Z,13.30
2019-05-29T07:29:07.516Z,16.45
2019-05-29T07:29:26.757Z,11.90
2019-05-29T07:30:00.966Z,10.98
2019-05-29T07:30:37.364Z,13.32
2019-05-29T07:31:12.530Z,11.35
2019-05-29T07:31:47.321Z,17.62
2019-05-29T07:32:22.262Z,17.37
2019-05-29T07:32:59.120Z,15.90
2019-05-29T07:33:33.924Z,14.33
2019-05-29T07:34:08.834Z,13.53
2019-05-29T07:34:59.453Z,14.95
2019-05-29T07:35:20.254Z,9.88
2019-05-29T07:35:55.388Z,11.22
2019-05-29T07:36:30.411Z,14.55
2019-05-29T07:37:05.012Z,13.00
2019-05-29T07:37:41.628Z,11.05
2019-05-29T07:38:16.898Z,15.53
2019-05-29T07:39:02.458Z,18.65
2019-05-29T07:39:28.072Z,14.83
2019-05-29T07:40:03.190Z,13.70
2019-05-29T07:40:38.383Z,16.90
2019-05-29T07:41:14.230Z,13.68
2019-05-29T07:41:49.444Z,15.15
2019-05-29T07:42:23.970Z,11.10
2019-05-29T07:42:59.037Z,9.33